createdAt,value
2018-03-28T00:00:15.073Z,70.50
2018-03-28T00:02:42.630Z,78.60
2018-03-28T00:05:10.200Z,75.50
2018-03-28T00:07:38.602Z,87.97
2018-03-28T00:10:06.955Z,86.00
2018-03-28T00:12:34.544Z,77.30
2018-03-28T00:15:02.466Z,84.73
2018-03-28T00:17:31.551Z,75.80
2018-03-28T00:19:59.133Z,78.20
2018-03-28T00:22:27.491Z,76.77
2018-03-28T00:24:55.066Z,93.87
2018-03-28T00:27:24.175Z,79.87
2018-03-28T00:29:52.572Z,70.27
2018-03-28T00:32:20.160Z,75.90
2018-03-28T00:34:47.735Z,79.40
2018-03-28T00:37:15.341Z,77.83
2018-03-28T00:39:43.689Z,83.17
2018-03-28T00:42:11.260Z,82.50
2018-03-28T00:44:38.920Z,72.47
2018-03-28T00:47:07.387Z,72.00
2018-03-28T00:49:35.732Z,75.93
2018-03-28T00:52:03.329Z,78.07
2018-03-28T00:54:31.703Z,71.97
2018-03-28T00:56:59.317Z,70.00
2018-03-28T00:59:26.895Z,64.40
2018-03-28T01:01:54.517Z,66.93
2018-03-28T01:04:22.845Z,60.80
2018-03-28T01:06:50.429Z,69.83
2018-03-28T01:09:18.286Z,70.03
2018-03-28T01:11:45.850Z,73.27
2018-03-28T01:14:13.485Z,65.97
2018-03-28T01:16:41.378Z,66.63
2018-03-28T01:19:08.925Z,67.37
2018-03-28T01:21:36.470Z,58.63
2018-03-28T01:24:04.066Z,67.80
2018-03-28T01:26:32.453Z,61.83
2018-03-28T01:29:00.814Z,57.43
2018-03-28T01:31:29.167Z,62.00
2018-03-28T01:33:56.942Z,62.40
2018-03-28T01:36:24.506Z,65.93
2018-03-28T01:38:52.076Z,60.10
2018-03-28T01:41:20.462Z,64.93
2018-03-28T01:43:48.816Z,60.13
2018-03-28T01:46:16.396Z,62.40
2018-03-28T01:48:44.768Z,56.37
2018-03-28T01:51:13.202Z,58.43
2018-03-28T01:53:40.780Z,59.90
2018-03-28T01:56:08.636Z,61.77
2018-03-28T01:58:36.193Z,59.07
2018-03-28T02:01:03.766Z,55.63
2018-03-28T02:03:31.357Z,56.60
2018-03-28T02:05:59.681Z,55.30
2018-03-28T02:08:27.361Z,59.80
2018-03-28T02:10:54.998Z,58.50
2018-03-28T02:13:28.829Z,65.93
2018-03-28T02:15:56.651Z,56.90
2018-03-28T02:18:24.970Z,56.70
2018-03-28T02:20:52.501Z,59.73
2018-03-28T02:23:20.381Z,56.70
2018-03-28T02:25:47.914Z,54.43
2018-03-28T02:28:15.431Z,58.73
2018-03-28T02:30:43.260Z,58.00
2018-03-28T02:33:10.787Z,56.63
2018-03-28T02:35:39.073Z,60.83
2018-03-28T02:38:06.652Z,56.17
2018-03-28T02:40:34.172Z,52.40
2018-03-28T02:43:02.493Z,54.60
2018-03-28T02:45:30.065Z,54.73
2018-03-28T02:47:57.609Z,53.57
2018-03-28T02:50:25.164Z,54.03
2018-03-28T02:52:52.732Z,51.57
2018-03-28T02:55:20.283Z,59.03
2018-03-28T02:57:47.825Z,53.53
2018-03-28T03:00:15.401Z,52.73
2018-03-28T03:02:42.972Z,54.90
2018-03-28T03:05:10.487Z,56.27
2018-03-28T03:07:38.281Z,57.43
2018-03-28T03:10:05.804Z,63.17
2018-03-28T03:12:34.093Z,55.27
2018-03-28T03:15:01.987Z,63.70
2018-03-28T03:17:29.508Z,53.70
2018-03-28T03:19:57.793Z,51.20
2018-03-28T03:22:25.368Z,53.20
2018-03-28T03:24:52.912Z,56.30
2018-03-28T03:27:20.444Z,58.77
2018-03-28T03:29:49.023Z,65.37
2018-03-28T03:32:16.719Z,66.10
2018-03-28T03:34:44.269Z,68.50
2018-03-28T03:37:11.831Z,62.37
2018-03-28T03:39:39.356Z,72.00
2018-03-28T03:42:06.898Z,75.40
2018-03-28T03:44:34.559Z,75.17
2018-03-28T03:47:02.092Z,71.20
2018-03-28T03:49:29.606Z,74.50
2018-03-28T03:51:57.924Z,82.33
2018-03-28T03:54:25.452Z,81.27
2018-03-28T03:56:53.031Z,82.13
2018-03-28T03:59:20.896Z,83.20
2018-03-28T04:01:48.411Z,85.73
2018-03-28T04:04:16.744Z,90.83
2018-03-28T04:06:44.299Z,83.57
2018-03-28T04:09:11.818Z,97.67
2018-03-28T04:11:40.102Z,93.27
2018-03-28T04:14:07.913Z,99.43
2018-03-28T04:16:35.458Z,97.43
2018-03-28T04:19:02.992Z,94.70
2018-03-28T04:21:30.868Z,104.13
2018-03-28T04:23:58.400Z,103.83
2018-03-28T04:26:26.699Z,106.63
2018-03-28T04:28:54.895Z,108.70
2018-03-28T04:31:22.416Z,99.13
2018-03-28T04:33:49.998Z,90.40
2018-03-28T04:36:18.592Z,95.37
2018-03-28T04:38:46.113Z,84.67
2018-03-28T04:41:13.644Z,103.37
2018-03-28T04:43:42.129Z,90.43
2018-03-28T04:46:09.626Z,110.80
2018-03-28T04:48:37.144Z,99.73
2018-03-28T04:51:05.071Z,112.30
2018-03-28T04:53:32.718Z,117.83
2018-03-28T04:56:00.248Z,123.37
2018-03-28T04:58:28.874Z,107.50
2018-03-28T05:00:56.432Z,110.90
2018-03-28T05:03:23.946Z,102.70
2018-03-28T05:05:52.365Z,117.67
2018-03-28T05:08:19.920Z,116.53
2018-03-28T05:10:47.461Z,112.53
2018-03-28T05:13:15.356Z,116.10
2018-03-28T05:15:42.897Z,129.40
2018-03-28T05:18:10.420Z,128.80
2018-03-28T05:20:39.053Z,111.13
2018-03-28T05:23:06.593Z,115.53
2018-03-28T05:25:34.645Z,117.83
2018-03-28T05:28:02.771Z,110.10
2018-03-28T05:30:32.340Z,112.10
2018-03-28T05:33:00.003Z,146.97
2018-03-28T05:35:27.885Z,154.63
2018-03-28T05:37:55.433Z,166.93
2018-03-28T05:40:22.956Z,160.73
2018-03-28T05:42:51.572Z,168.40
2018-03-28T05:45:19.110Z,154.47
2018-03-28T05:47:46.683Z,188.10
2018-03-28T05:50:15.063Z,216.57
2018-03-28T05:52:42.597Z,223.70
2018-03-28T05:55:10.909Z,231.37
2018-03-28T05:57:38.459Z,216.70
2018-03-28T06:00:06.715Z,218.43
2018-03-28T06:02:34.295Z,208.77
2018-03-28T06:05:01.882Z,173.60
2018-03-28T06:07:29.420Z,162.77
2018-03-28T06:09:56.961Z,156.30
2018-03-28T06:12:24.932Z,161.13
2018-03-28T06:14:52.447Z,137.03
2018-03-28T06:17:20.048Z,149.73
2018-03-28T06:19:47.914Z,179.70
2018-03-28T06:22:15.445Z,189.83
2018-03-28T06:24:43.947Z,206.67
2018-03-28T06:27:11.764Z,249.03
2018-03-28T06:29:39.296Z,205.40
2018-03-28T06:32:06.816Z,198.43
2018-03-28T06:34:34.368Z,209.20
2018-03-28T06:37:02.676Z,229.90
2018-03-28T06:39:30.207Z,223.83
2018-03-28T06:41:57.762Z,206.10
2018-03-28T06:44:26.076Z,203.23
2018-03-28T06:46:53.634Z,218.70
2018-03-28T06:49:21.204Z,221.00
2018-03-28T06:51:48.736Z,221.10
2018-03-28T06:54:16.268Z,208.83
2018-03-28T06:56:44.893Z,212.60
2018-03-28T06:59:12.431Z,213.87
2018-03-28T07:01:39.957Z,207.00
2018-03-28T07:04:08.325Z,212.20
2018-03-28T07:06:36.650Z,221.53
2018-03-28T07:09:04.190Z,221.37
2018-03-28T07:11:31.762Z,221.13
2018-03-28T07:13:59.300Z,221.07
2018-03-28T07:16:26.842Z,238.00
2018-03-28T07:18:55.157Z,241.00
2018-03-28T07:21:22.673Z,236.17
2018-03-28T07:23:50.302Z,262.03
2018-03-28T07:26:18.135Z,235.23
2018-03-28T07:28:45.657Z,235.63
2018-03-28T07:31:13.950Z,255.70
2018-03-28T07:33:42.511Z,212.53
2018-03-28T07:36:10.042Z,234.00
2018-03-28T07:38:37.580Z,228.63
2018-03-28T07:41:05.471Z,206.40
2018-03-28T07:43:33.006Z,196.07
2018-03-28T07:46:00.544Z,168.23
2018-03-28T07:48:28.432Z,160.60
2018-03-28T07:50:55.979Z,154.93
2018-03-28T07:53:23.508Z,158.07
2018-03-28T07:55:51.831Z,165.43
2018-03-28T07:58:19.348Z,155.27
2018-03-28T08:00:47.627Z,124.23
2018-03-28T08:03:15.219Z,129.50
2018-03-28T08:05:42.738Z,126.20
2018-03-28T08:08:11.040Z,113.70
2018-03-28T08:10:38.608Z,107.87
2018-03-28T08:13:06.150Z,101.27
2018-03-28T08:15:33.935Z,112.60
2018-03-28T08:18:02.427Z,114.27
2018-03-28T08:20:29.975Z,102.03
2018-03-28T08:22:57.517Z,100.33
2018-03-28T08:25:25.087Z,107.10
2018-03-28T08:27:52.648Z,107.77
2018-03-28T08:30:20.208Z,91.27
2018-03-28T08:32:48.086Z,107.97
2018-03-28T08:35:15.637Z,104.90
2018-03-28T08:37:43.403Z,108.93
2018-03-28T08:40:11.255Z,99.97
2018-03-28T08:42:39.011Z,100.63
2018-03-28T08:45:06.549Z,109.60
2018-03-28T08:47:35.115Z,111.30
2018-03-28T08:50:03.448Z,97.97
2018-03-28T08:52:31.045Z,91.67
2018-03-28T08:54:58.984Z,100.83
2018-03-28T08:57:26.539Z,101.90
2018-03-28T08:59:54.056Z,93.20
2018-03-28T09:02:21.982Z,94.73
2018-03-28T09:04:50.263Z,90.33
2018-03-28T09:07:19.324Z,86.50
2018-03-28T09:09:47.188Z,80.33
2018-03-28T09:12:14.959Z,88.30
2018-03-28T09:14:42.526Z,83.20
2018-03-28T09:17:10.360Z,79.77
2018-03-28T09:19:37.876Z,73.27
2018-03-28T09:22:06.166Z,80.87
2018-03-28T09:24:34.498Z,69.73
2018-03-28T09:27:02.203Z,82.23
2018-03-28T09:29:30.488Z,78.17
2018-03-28T09:31:58.806Z,76.87
2018-03-28T09:34:26.355Z,77.23
2018-03-28T09:36:53.886Z,77.50
2018-03-28T09:39:22.307Z,67.87
2018-03-28T09:41:49.841Z,73.47
2018-03-28T09:44:17.350Z,73.70
2018-03-28T09:46:46.498Z,67.93
2018-03-28T09:49:14.154Z,69.17
2018-03-28T09:51:41.793Z,59.83
2018-03-28T09:54:10.415Z,60.33
2018-03-28T09:56:37.958Z,60.07
2018-03-28T09:59:05.687Z,62.07
2018-03-28T10:01:34.301Z,59.40
2018-03-28T10:04:07.506Z,55.33
2018-03-28T10:06:35.224Z,56.63
2018-03-28T10:09:04.332Z,51.30
2018-03-28T10:11:31.896Z,56.70
2018-03-28T10:13:59.743Z,55.50
2018-03-28T10:16:28.055Z,60.43
2018-03-28T10:18:55.586Z,63.27
2018-03-28T10:21:23.981Z,57.23
2018-03-28T10:23:51.522Z,62.37
2018-03-28T10:26:19.833Z,71.00
2018-03-28T10:28:47.727Z,58.57
2018-03-28T10:31:15.260Z,56.87
2018-03-28T10:33:42.773Z,54.60
2018-03-28T10:36:11.204Z,50.43
2018-03-28T10:38:38.730Z,51.30
2018-03-28T10:41:06.274Z,54.60
2018-03-28T10:43:34.652Z,57.23
2018-03-28T10:46:02.952Z,54.27
2018-03-28T10:48:30.510Z,56.43
2018-03-28T10:50:58.077Z,64.80
2018-03-28T10:53:25.606Z,60.97
2018-03-28T10:55:53.892Z,56.20
2018-03-28T10:58:21.875Z,57.00
2018-03-28T11:00:49.401Z,53.73
2018-03-28T11:03:17.692Z,58.20
2018-03-28T11:05:45.269Z,61.10
2018-03-28T11:08:12.811Z,57.43
2018-03-28T11:10:40.380Z,54.93
2018-03-28T11:13:07.930Z,58.33
2018-03-28T11:15:35.471Z,63.43
2018-03-28T11:18:03.774Z,53.23
2018-03-28T11:20:31.671Z,53.77
2018-03-28T11:22:59.211Z,52.77
2018-03-28T11:25:26.756Z,54.90
2018-03-28T11:27:54.778Z,55.63
2018-03-28T11:30:22.305Z,56.43
2018-03-28T11:32:49.823Z,51.20
2018-03-28T11:35:18.397Z,47.00
2018-03-28T11:37:46.694Z,49.23
2018-03-28T11:40:15.068Z,47.50
2018-03-28T11:42:43.042Z,54.13
2018-03-28T11:45:10.611Z,53.13
2018-03-28T11:47:38.189Z,58.17
2018-03-28T11:50:06.051Z,50.47
2018-03-28T11:52:33.605Z,53.90
2018-03-28T11:55:01.304Z,51.67
2018-03-28T11:57:29.120Z,52.47
2018-03-28T11:59:56.649Z,53.43
2018-03-28T12:02:24.958Z,60.73
2018-03-28T12:04:52.609Z,57.80
2018-03-28T12:07:20.175Z,54.97
2018-03-28T12:09:47.697Z,49.83
2018-03-28T12:12:16.029Z,43.73
2018-03-28T12:14:43.570Z,46.23
2018-03-28T12:17:11.126Z,45.07
2018-03-28T12:19:38.941Z,43.20
2018-03-28T12:22:06.475Z,51.73
2018-03-28T12:24:34.052Z,49.00
2018-03-28T12:27:01.912Z,51.70
2018-03-28T12:29:29.445Z,46.60
2018-03-28T12:31:57.030Z,43.70
2018-03-28T12:34:24.655Z,45.73
2018-03-28T12:36:52.233Z,41.73
2018-03-28T12:39:19.780Z,43.80
2018-03-28T12:41:47.336Z,44.83
2018-03-28T12:44:14.900Z,43.47
2018-03-28T12:46:42.442Z,41.30
2018-03-28T12:49:10.016Z,42.27
2018-03-28T12:51:37.542Z,43.10
2018-03-28T12:54:05.129Z,36.50
2018-03-28T12:56:32.691Z,36.33
2018-03-28T12:59:00.244Z,36.30
2018-03-28T13:01:27.785Z,35.37
2018-03-28T13:03:55.335Z,39.57
2018-03-28T13:06:22.858Z,39.53
2018-03-28T13:08:50.477Z,41.67
2018-03-28T13:11:18.040Z,40.47
2018-03-28T13:13:45.577Z,37.80
2018-03-28T13:16:13.158Z,42.23
2018-03-28T13:18:40.810Z,39.60
2018-03-28T13:21:08.332Z,44.63
2018-03-28T13:23:36.669Z,45.50
2018-03-28T13:26:04.515Z,40.83
2018-03-28T13:28:32.045Z,40.63
2018-03-28T13:30:59.623Z,43.03
2018-03-28T13:33:27.305Z,43.67
2018-03-28T13:35:54.868Z,43.00
2018-03-28T13:38:22.416Z,41.37
2018-03-28T13:40:50.260Z,44.10
2018-03-28T13:43:17.782Z,38.40
2018-03-28T13:45:45.445Z,35.60
2018-03-28T13:48:13.061Z,35.03
2018-03-28T13:50:41.015Z,34.07
2018-03-28T13:53:08.527Z,31.63
2018-03-28T13:55:36.345Z,30.30
2018-03-28T13:58:03.995Z,34.60
2018-03-28T14:00:31.514Z,37.33
2018-03-28T14:02:59.846Z,35.50
2018-03-28T14:05:27.494Z,39.50
2018-03-28T14:07:55.024Z,41.30
2018-03-28T14:10:23.356Z,39.27
2018-03-28T14:12:50.892Z,52.87
2018-03-28T14:15:18.429Z,46.00
2018-03-28T14:17:46.244Z,43.83
2018-03-28T14:20:13.758Z,43.00
2018-03-28T14:22:41.278Z,47.03
2018-03-28T14:25:08.826Z,48.37
2018-03-28T14:27:37.104Z,39.43
2018-03-28T14:30:04.726Z,35.90
2018-03-28T14:32:32.383Z,42.17
2018-03-28T14:34:59.952Z,37.60
2018-03-28T14:37:27.486Z,37.07
2018-03-28T14:39:55.174Z,42.80
2018-03-28T14:42:22.700Z,38.00
2018-03-28T14:44:50.223Z,37.13
2018-03-28T14:47:18.850Z,37.67
2018-03-28T14:49:46.378Z,48.50
2018-03-28T14:52:14.672Z,38.17
2018-03-28T14:54:42.481Z,37.97
2018-03-28T14:57:10.019Z,31.03
2018-03-28T14:59:37.530Z,37.60
2018-03-28T15:02:09.733Z,44.17
2018-03-28T15:04:37.501Z,40.87
2018-03-28T15:07:05.040Z,42.70
2018-03-28T15:09:32.931Z,34.07
2018-03-28T15:12:00.495Z,36.33
2018-03-28T15:14:28.018Z,37.90
2018-03-28T15:16:55.567Z,33.33
2018-03-28T15:19:23.862Z,29.47
2018-03-28T15:21:51.476Z,28.37
2018-03-28T15:24:20.554Z,25.00
2018-03-28T15:26:48.100Z,21.50
2018-03-28T15:29:15.629Z,25.63
2018-03-28T15:31:43.511Z,22.87
2018-03-28T15:34:11.038Z,21.43
2018-03-28T15:36:39.345Z,29.03
2018-03-28T15:39:07.227Z,19.60
2018-03-28T15:41:34.748Z,14.27
2018-03-28T15:44:03.041Z,16.87
2018-03-28T15:46:30.634Z,15.50
2018-03-28T15:48:58.157Z,16.93
2018-03-28T15:51:25.686Z,26.93
2018-03-28T15:53:54.264Z,23.93
2018-03-28T15:56:22.601Z,27.93
2018-03-28T15:58:50.150Z,21.17
2018-03-28T16:01:18.009Z,20.97
2018-03-28T16:03:45.974Z,20.83
2018-03-28T16:06:13.504Z,26.97
2018-03-28T16:08:41.128Z,28.77
2018-03-28T16:11:08.602Z,25.80
2018-03-28T16:13:36.207Z,20.77
2018-03-28T16:16:04.085Z,24.60
2018-03-28T16:18:40.312Z,25.40
2018-03-28T16:21:08.229Z,28.60
2018-03-28T16:23:35.754Z,28.23
2018-03-28T16:26:03.426Z,28.30
2018-03-28T16:28:30.994Z,25.60
2018-03-28T16:30:58.558Z,25.37
2018-03-28T16:33:26.081Z,29.80
2018-03-28T16:35:53.744Z,31.90
2018-03-28T16:38:21.313Z,31.20
2018-03-28T16:40:48.847Z,28.07
2018-03-28T16:43:17.234Z,28.77
2018-03-28T16:45:44.775Z,23.67
2018-03-28T16:48:13.181Z,27.30
2018-03-28T16:50:41.064Z,25.60
2018-03-28T16:53:08.713Z,23.33
2018-03-28T16:55:37.219Z,26.60
2018-03-28T16:58:05.983Z,26.17
2018-03-28T17:00:33.538Z,26.20
2018-03-28T17:03:01.337Z,28.70
2018-03-28T17:05:28.928Z,24.37
2018-03-28T17:07:57.351Z,24.27
2018-03-28T17:10:24.893Z,29.33
2018-03-28T17:12:52.457Z,32.00
2018-03-28T17:15:19.979Z,27.97
2018-03-28T17:17:48.281Z,27.70
2018-03-28T17:20:15.922Z,30.83
2018-03-28T17:22:44.213Z,24.07
2018-03-28T17:25:11.794Z,24.83
2018-03-28T17:27:39.462Z,24.13
2018-03-28T17:30:06.997Z,26.20
2018-03-28T17:32:34.667Z,22.93
2018-03-28T17:35:02.564Z,25.17
2018-03-28T17:37:30.116Z,20.20
2018-03-28T17:39:57.681Z,24.63
2018-03-28T17:42:25.534Z,33.17
2018-03-28T17:44:53.059Z,27.40
2018-03-28T17:47:21.384Z,34.47
2018-03-28T17:49:49.332Z,27.30
2018-03-28T17:52:20.620Z,35.30
2018-03-28T17:54:48.233Z,27.53
2018-03-28T17:57:15.801Z,33.07
2018-03-28T17:59:48.806Z,31.70
2018-03-28T18:02:16.657Z,27.90
2018-03-28T18:04:44.250Z,31.57
2018-03-28T18:07:11.766Z,26.53
2018-03-28T18:09:39.341Z,31.23
2018-03-28T18:12:06.885Z,25.07
2018-03-28T18:14:34.402Z,28.57
2018-03-28T18:17:03.178Z,33.27
2018-03-28T18:19:31.489Z,29.07
2018-03-28T18:21:59.007Z,30.03
2018-03-28T18:24:27.642Z,30.87
2018-03-28T18:26:55.177Z,34.63
2018-03-28T18:29:22.758Z,37.30
2018-03-28T18:31:50.640Z,34.83
2018-03-28T18:34:18.183Z,24.70
2018-03-28T18:36:45.707Z,24.73
2018-03-28T18:39:14.044Z,37.13
2018-03-28T18:41:41.573Z,27.73
2018-03-28T18:44:09.158Z,31.87
2018-03-28T18:46:37.099Z,35.40
2018-03-28T18:49:04.618Z,25.47
2018-03-28T18:51:32.968Z,28.90
2018-03-28T18:54:00.823Z,23.07
2018-03-28T18:56:28.377Z,34.83
2018-03-28T18:58:55.903Z,30.30
2018-03-28T19:01:23.786Z,21.00
2018-03-28T19:03:51.316Z,30.00
2018-03-28T19:06:19.622Z,18.93
2018-03-28T19:08:47.493Z,16.27
2018-03-28T19:11:15.022Z,18.53
2018-03-28T19:13:42.608Z,15.63
2018-03-28T19:16:10.172Z,17.33
2018-03-28T19:18:37.692Z,20.60
2018-03-28T19:21:05.991Z,20.13
2018-03-28T19:23:34.306Z,19.60
2018-03-28T19:26:01.953Z,20.77
2018-03-28T19:28:29.474Z,15.70
2018-03-28T19:30:57.074Z,13.00
2018-03-28T19:33:24.597Z,13.07
2018-03-28T19:35:52.176Z,12.40
2018-03-28T19:38:20.045Z,12.63
2018-03-28T19:40:47.691Z,12.70
2018-03-28T19:43:15.256Z,10.80
2018-03-28T19:45:43.135Z,14.97
2018-03-28T19:48:10.690Z,10.80
2018-03-28T19:50:38.335Z,9.80
2018-03-28T19:53:06.299Z,10.27
2018-03-28T19:55:34.786Z,13.43
2018-03-28T19:58:02.336Z,14.57
2018-03-28T20:00:30.271Z,12.57
2018-03-28T20:02:57.892Z,13.00
2018-03-28T20:05:25.537Z,12.80
2018-03-28T20:07:53.887Z,11.23
2018-03-28T20:10:21.621Z,14.23
2018-03-28T20:12:49.229Z,15.07
2018-03-28T20:15:17.310Z,21.80
2018-03-28T20:17:44.841Z,18.57
2018-03-28T20:20:12.428Z,16.50
2018-03-28T20:22:40.020Z,18.53
2018-03-28T20:25:07.532Z,17.43
2018-03-28T20:27:35.108Z,19.03
2018-03-28T20:30:03.785Z,22.37
2018-03-28T20:32:31.345Z,20.57
2018-03-28T20:34:58.906Z,17.43
2018-03-28T20:37:26.734Z,16.30
2018-03-28T20:39:55.027Z,22.07
2018-03-28T20:42:22.602Z,18.47
2018-03-28T20:44:50.167Z,18.90
2018-03-28T20:47:17.728Z,16.03
2018-03-28T20:49:45.261Z,16.03
2018-03-28T20:52:13.164Z,17.67
2018-03-28T20:54:40.698Z,13.30
2018-03-28T20:57:08.273Z,14.90
2018-03-28T20:59:36.083Z,11.23
2018-03-28T21:02:04.370Z,9.67
2018-03-28T21:04:32.665Z,11.47
2018-03-28T21:07:00.563Z,15.70
2018-03-28T21:09:28.077Z,13.50
2018-03-28T21:11:55.595Z,11.77
2018-03-28T21:14:23.154Z,15.20
2018-03-28T21:16:50.667Z,8.50
2018-03-28T21:19:18.199Z,10.43
2018-03-28T21:21:46.527Z,9.87
2018-03-28T21:24:14.048Z,11.33
2018-03-28T21:26:41.569Z,9.57
2018-03-28T21:29:09.399Z,11.90
2018-03-28T21:31:36.921Z,11.70
2018-03-28T21:34:05.215Z,13.20
2018-03-28T21:36:34.328Z,13.70
2018-03-28T21:39:01.867Z,13.43
2018-03-28T21:41:29.382Z,15.00
2018-03-28T21:43:57.722Z,16.07
2018-03-28T21:46:25.268Z,18.37
2018-03-28T21:48:52.799Z,16.00
2018-03-28T21:51:21.407Z,13.20
2018-03-28T21:53:48.933Z,13.00
2018-03-28T21:56:17.254Z,16.40
2018-03-28T21:58:44.905Z,14.77
2018-03-28T22:01:12.424Z,15.00
2018-03-28T22:03:40.746Z,13.43
2018-03-28T22:06:08.566Z,14.90
2018-03-28T22:08:36.959Z,17.93
2018-03-28T22:11:05.258Z,15.90
2018-03-28T22:13:32.861Z,14.50
2018-03-28T22:16:00.489Z,17.53
2018-03-28T22:18:28.028Z,16.07
2018-03-28T22:20:55.823Z,14.50
2018-03-28T22:23:23.379Z,11.40
2018-03-28T22:25:50.914Z,6.20
2018-03-28T22:28:18.467Z,5.23
2018-03-28T22:30:46.049Z,7.03
2018-03-28T22:33:13.626Z,7.43
2018-03-28T22:35:41.474Z,6.50
2018-03-28T22:38:09.044Z,10.60
2018-03-28T22:40:36.585Z,4.77
2018-03-28T22:43:04.143Z,6.27
2018-03-28T22:45:31.666Z,6.43
2018-03-28T22:47:59.983Z,6.80
2018-03-28T22:50:27.534Z,6.53
2018-03-28T22:52:55.437Z,7.67
2018-03-28T22:55:22.960Z,6.90
2018-03-28T22:57:50.623Z,8.00
2018-03-28T23:00:18.410Z,7.80
2018-03-28T23:02:45.930Z,10.63
2018-03-28T23:05:13.799Z,7.60
2018-03-28T23:07:41.370Z,6.57
2018-03-28T23:10:08.875Z,5.90
2018-03-28T23:12:37.452Z,8.57
2018-03-28T23:15:05.744Z,5.73
2018-03-28T23:17:34.051Z,6.23
2018-03-28T23:20:01.596Z,8.53
2018-03-28T23:22:38.996Z,7.90
2018-03-28T23:25:06.660Z,5.83
2018-03-28T23:27:34.206Z,7.17
2018-03-28T23:30:02.199Z,9.03
2018-03-28T23:32:29.762Z,15.77
2018-03-28T23:34:57.272Z,11.63
2018-03-28T23:37:25.596Z,10.83
2018-03-28T23:39:53.418Z,7.60
2018-03-28T23:42:21.776Z,10.93
2018-03-28T23:44:50.786Z,8.90
2018-03-28T23:47:19.187Z,15.00
2018-03-28T23:49:46.764Z,13.10
2018-03-28T23:52:14.347Z,12.13
2018-03-28T23:54:41.907Z,8.57
2018-03-28T23:57:10.932Z,13.10
2018-03-28T23:59:39.232Z,12.23
